sensor_id;sensor_type;location;lat;lon;timestamp;temperature;humidity
20045;DHT22;10183;47.808;9.476;2022-10-19T00:00:31;11.40;99.90
20045;DHT22;10183;47.808;9.476;2022-10-19T00:02:57;11.40;99.90
20045;DHT22;10183;47.808;9.476;2022-10-19T00:05:23;11.30;99.90
20045;DHT22;10183;47.808;9.476;2022-10-19T00:07:49;11.30;99.90
20045;DHT22;10183;47.808;9.476;2022-10-19T00:10:15;11.30;99.90
20045;DHT22;10183;47.808;9.476;2022-10-19T00:12:41;11.20;99.90
20045;DHT22;10183;47.808;9.476;2022-10-19T00:15:08;11.10;99.90
20045;DHT22;10183;47.808;9.476;2022-10-19T00:17:34;11.00;99.90
20045;DHT22;10183;47.808;9.476;2022-10-19T00:20:00;11.00;99.90
20045;DHT22;10183;47.808;9.476;2022-10-19T00:22:26;11.00;99.90
20045;DHT22;10183;47.808;9.476;2022-10-19T00:24:55;11.00;99.90
20045;DHT22;10183;47.808;9.476;2022-10-19T00:27:21;10.90;99.90
20045;DHT22;10183;47.808;9.476;2022-10-19T00:29:48;10.90;99.90
20045;DHT22;10183;47.808;9.476;2022-10-19T00:32:14;10.90;99.90
20045;DHT22;10183;47.808;9.476;2022-10-19T00:34:40;10.90;99.90
20045;DHT22;10183;47.808;9.476;2022-10-19T00:37:06;10.90;99.90
20045;DHT22;10183;47.808;9.476;2022-10-19T00:39:32;10.80;99.90
20045;DHT22;10183;47.808;9.476;2022-10-19T00:41:58;10.90;99.90
20045;DHT22;10183;47.808;9.476;2022-10-19T00:46:57;10.80;99.90
20045;DHT22;10183;47.808;9.476;2022-10-19T00:49:28;10.80;99.90
20045;DHT22;10183;47.808;9.476;2022-10-19T00:51:58;10.80;99.90
20045;DHT22;10183;47.808;9.476;2022-10-19T00:54:26;10.70;99.90
20045;DHT22;10183;47.808;9.476;2022-10-19T00:56:54;10.70;99.90
20045;DHT22;10183;47.808;9.476;2022-10-19T00:59:22;10.70;99.90
20045;DHT22;10183;47.808;9.476;2022-10-19T01:01:51;10.80;99.90
20045;DHT22;10183;47.808;9.476;2022-10-19T01:04:20;10.80;99.90
20045;DHT22;10183;47.808;9.476;2022-10-19T01:06:47;10.90;99.90
20045;DHT22;10183;47.808;9.476;2022-10-19T01:09:13;10.80;99.90
20045;DHT22;10183;47.808;9.476;2022-10-19T01:11:53;10.80;99.90
20045;DHT22;10183;47.808;9.476;2022-10-19T01:17:02;10.60;99.90
20045;DHT22;10183;47.808;9.476;2022-10-19T01:33:41;10.50;99.90
20045;DHT22;10183;47.808;9.476;2022-10-19T01:36:20;10.50;99.90
20045;DHT22;10183;47.808;9.476;2022-10-19T01:39:08;10.50;99.90
20045;DHT22;10183;47.808;9.476;2022-10-19T01:44:41;10.30;99.90
20045;DHT22;10183;47.808;9.476;2022-10-19T01:47:14;10.50;99.90
20045;DHT22;10183;47.808;9.476;2022-10-19T01:52:34;10.60;99.90
20045;DHT22;10183;47.808;9.476;2022-10-19T01:55:02;10.60;99.90
20045;DHT22;10183;47.808;9.476;2022-10-19T01:57:32;10.60;99.90
20045;DHT22;10183;47.808;9.476;2022-10-19T02:00:02;10.50;99.90
20045;DHT22;10183;47.808;9.476;2022-10-19T02:02:35;10.60;99.90
20045;DHT22;10183;47.808;9.476;2022-10-19T02:05:03;10.70;99.90
20045;DHT22;10183;47.808;9.476;2022-10-19T02:07:30;10.70;99.90
20045;DHT22;10183;47.808;9.476;2022-10-19T02:09:57;10.70;99.90
20045;DHT22;10183;47.808;9.476;2022-10-19T02:12:24;10.60;99.90
20045;DHT22;10183;47.808;9.476;2022-10-19T02:14:55;10.60;99.90
20045;DHT22;10183;47.808;9.476;2022-10-19T02:17:35;10.60;99.90
20045;DHT22;10183;47.808;9.476;2022-10-19T02:20:03;10.70;99.90
20045;DHT22;10183;47.808;9.476;2022-10-19T02:22:30;10.70;99.90
20045;DHT22;10183;47.808;9.476;2022-10-19T02:24:56;10.80;99.90
20045;DHT22;10183;47.808;9.476;2022-10-19T02:27:23;10.80;99.90
20045;DHT22;10183;47.808;9.476;2022-10-19T02:29:49;10.80;99.90
20045;DHT22;10183;47.808;9.476;2022-10-19T02:32:16;10.90;99.90
20045;DHT22;10183;47.808;9.476;2022-10-19T02:34:42;10.90;99.90
20045;DHT22;10183;47.808;9.476;2022-10-19T02:37:08;10.90;99.90
20045;DHT22;10183;47.808;9.476;2022-10-19T02:39:37;10.90;99.90
20045;DHT22;10183;47.808;9.476;2022-10-19T02:42:27;10.80;99.90
20045;DHT22;10183;47.808;9.476;2022-10-19T02:45:07;10.80;99.90
20045;DHT22;10183;47.808;9.476;2022-10-19T02:47:40;10.70;99.90
20045;DHT22;10183;47.808;9.476;2022-10-19T02:50:08;10.70;99.90
20045;DHT22;10183;47.808;9.476;2022-10-19T02:52:38;10.70;99.90
20045;DHT22;10183;47.808;9.476;2022-10-19T02:55:06;10.60;99.90
20045;DHT22;10183;47.808;9.476;2022-10-19T02:57:32;10.60;99.90
20045;DHT22;10183;47.808;9.476;2022-10-19T02:59:59;10.50;99.90
20045;DHT22;10183;47.808;9.476;2022-10-19T03:02:27;10.50;99.90
20045;DHT22;10183;47.808;9.476;2022-10-19T03:04:53;10.50;99.90
20045;DHT22;10183;47.808;9.476;2022-10-19T03:07:20;10.40;99.90
20045;DHT22;10183;47.808;9.476;2022-10-19T03:09:47;10.40;99.90
20045;DHT22;10183;47.808;9.476;2022-10-19T03:12:13;10.40;99.90
20045;DHT22;10183;47.808;9.476;2022-10-19T03:14:40;10.30;99.90
20045;DHT22;10183;47.808;9.476;2022-10-19T03:17:06;10.30;99.90
20045;DHT22;10183;47.808;9.476;2022-10-19T03:19:34;10.40;99.90
20045;DHT22;10183;47.808;9.476;2022-10-19T03:22:00;10.40;99.90
20045;DHT22;10183;47.808;9.476;2022-10-19T03:24:26;10.40;99.90
20045;DHT22;10183;47.808;9.476;2022-10-19T03:26:54;10.50;99.90
20045;DHT22;10183;47.808;9.476;2022-10-19T03:29:20;10.50;99.90
20045;DHT22;10183;47.808;9.476;2022-10-19T03:31:46;10.60;99.90
20045;DHT22;10183;47.808;9.476;2022-10-19T03:34:12;10.70;99.90
20045;DHT22;10183;47.808;9.476;2022-10-19T03:36:39;10.70;99.90
20045;DHT22;10183;47.808;9.476;2022-10-19T03:39:09;10.70;99.90
20045;DHT22;10183;47.808;9.476;2022-10-19T03:41:36;10.80;99.90
20045;DHT22;10183;47.808;9.476;2022-10-19T03:44:04;10.80;99.90
20045;DHT22;10183;47.808;9.476;2022-10-19T03:46:30;10.80;99.90
20045;DHT22;10183;47.808;9.476;2022-10-19T03:48:56;10.80;99.90
20045;DHT22;10183;47.808;9.476;2022-10-19T03:51:25;10.80;99.90
20045;DHT22;10183;47.808;9.476;2022-10-19T03:53:59;10.70;99.90
20045;DHT22;10183;47.808;9.476;2022-10-19T03:56:27;10.60;99.90
20045;DHT22;10183;47.808;9.476;2022-10-19T03:58:55;10.60;99.90
20045;DHT22;10183;47.808;9.476;2022-10-19T04:01:25;10.60;99.90
20045;DHT22;10183;47.808;9.476;2022-10-19T04:03:56;10.60;99.90
20045;DHT22;10183;47.808;9.476;2022-10-19T04:06:25;10.60;99.90
20045;DHT22;10183;47.808;9.476;2022-10-19T04:08:52;10.60;99.90
20045;DHT22;10183;47.808;9.476;2022-10-19T04:11:21;10.70;99.90
20045;DHT22;10183;47.808;9.476;2022-10-19T04:13:48;10.80;99.90
20045;DHT22;10183;47.808;9.476;2022-10-19T04:16:15;10.80;99.90
20045;DHT22;10183;47.808;9.476;2022-10-19T04:18:42;10.90;99.90
20045;DHT22;10183;47.808;9.476;2022-10-19T04:21:37;10.90;99.90
20045;DHT22;10183;47.808;9.476;2022-10-19T04:24:10;11.00;99.90
20045;DHT22;10183;47.808;9.476;2022-10-19T04:26:40;11.00;99.90
20045;DHT22;10183;47.808;9.476;2022-10-19T04:29:06;11.10;99.90
20045;DHT22;10183;47.808;9.476;2022-10-19T04:31:33;11.20;99.90
20045;DHT22;10183;47.808;9.476;2022-10-19T04:33:59;11.30;99.90
20045;DHT22;10183;47.808;9.476;2022-10-19T04:36:26;11.30;99.90
20045;DHT22;10183;47.808;9.476;2022-10-19T04:38:52;11.40;99.90
20045;DHT22;10183;47.808;9.476;2022-10-19T04:41:20;11.40;99.90
20045;DHT22;10183;47.808;9.476;2022-10-19T04:43:47;11.40;99.90
20045;DHT22;10183;47.808;9.476;2022-10-19T04:46:18;11.40;99.90
20045;DHT22;10183;47.808;9.476;2022-10-19T04:48:45;11.40;99.90
20045;DHT22;10183;47.808;9.476;2022-10-19T04:51:13;11.40;99.90
20045;DHT22;10183;47.808;9.476;2022-10-19T04:53:40;11.50;99.90
20045;DHT22;10183;47.808;9.476;2022-10-19T04:56:10;11.40;99.90
20045;DHT22;10183;47.808;9.476;2022-10-19T04:58:37;11.50;99.90
20045;DHT22;10183;47.808;9.476;2022-10-19T05:01:12;11.50;99.90
20045;DHT22;10183;47.808;9.476;2022-10-19T05:03:39;11.50;99.90
20045;DHT22;10183;47.808;9.476;2022-10-19T05:06:06;11.50;99.90
20045;DHT22;10183;47.808;9.476;2022-10-19T05:08:33;11.50;99.90
20045;DHT22;10183;47.808;9.476;2022-10-19T05:11:04;11.60;99.90
20045;DHT22;10183;47.808;9.476;2022-10-19T05:13:31;11.50;99.90
20045;DHT22;10183;47.808;9.476;2022-10-19T05:16:02;11.50;99.90
20045;DHT22;10183;47.808;9.476;2022-10-19T05:18:28;11.50;99.90
20045;DHT22;10183;47.808;9.476;2022-10-19T05:21:02;11.50;99.90
20045;DHT22;10183;47.808;9.476;2022-10-19T05:23:29;11.50;99.90
20045;DHT22;10183;47.808;9.476;2022-10-19T05:26:13;11.50;99.90
20045;DHT22;10183;47.808;9.476;2022-10-19T05:28:42;11.50;99.90
20045;DHT22;10183;47.808;9.476;2022-10-19T05:31:14;11.50;99.90
20045;DHT22;10183;47.808;9.476;2022-10-19T05:33:41;11.50;99.90
20045;DHT22;10183;47.808;9.476;2022-10-19T05:38:38;11.60;99.90
20045;DHT22;10183;47.808;9.476;2022-10-19T05:41:05;11.70;99.90
20045;DHT22;10183;47.808;9.476;2022-10-19T05:43:31;11.70;99.90
20045;DHT22;10183;47.808;9.476;2022-10-19T05:46:02;11.70;99.90
20045;DHT22;10183;47.808;9.476;2022-10-19T05:48:28;11.70;99.90
20045;DHT22;10183;47.808;9.476;2022-10-19T05:51:00;11.80;99.90
20045;DHT22;10183;47.808;9.476;2022-10-19T05:53:27;11.80;99.90
20045;DHT22;10183;47.808;9.476;2022-10-19T05:55:54;11.70;99.90
20045;DHT22;10183;47.808;9.476;2022-10-19T05:58:21;11.70;99.90
20045;DHT22;10183;47.808;9.476;2022-10-19T06:00:52;11.70;99.90
20045;DHT22;10183;47.808;9.476;2022-10-19T06:03:19;11.80;99.90
20045;DHT22;10183;47.808;9.476;2022-10-19T06:05:45;11.80;99.90
20045;DHT22;10183;47.808;9.476;2022-10-19T06:08:11;11.80;99.90
20045;DHT22;10183;47.808;9.476;2022-10-19T06:10:37;11.80;99.90
20045;DHT22;10183;47.808;9.476;2022-10-19T06:13:04;11.90;99.90
20045;DHT22;10183;47.808;9.476;2022-10-19T06:15:34;11.80;99.90
20045;DHT22;10183;47.808;9.476;2022-10-19T06:18:08;11.80;99.90
20045;DHT22;10183;47.808;9.476;2022-10-19T06:20:36;11.80;99.90
20045;DHT22;10183;47.808;9.476;2022-10-19T06:23:03;11.80;99.90
20045;DHT22;10183;47.808;9.476;2022-10-19T06:25:31;11.80;99.90
20045;DHT22;10183;47.808;9.476;2022-10-19T06:27:58;11.90;99.90
20045;DHT22;10183;47.808;9.476;2022-10-19T06:30:25;11.90;99.90
20045;DHT22;10183;47.808;9.476;2022-10-19T06:32:51;11.90;99.90
20045;DHT22;10183;47.808;9.476;2022-10-19T06:35:17;12.00;99.90
20045;DHT22;10183;47.808;9.476;2022-10-19T06:37:43;12.00;99.90
20045;DHT22;10183;47.808;9.476;2022-10-19T06:40:10;12.10;99.90
20045;DHT22;10183;47.808;9.476;2022-10-19T06:42:36;12.00;99.90
20045;DHT22;10183;47.808;9.476;2022-10-19T06:45:08;12.10;99.90
20045;DHT22;10183;47.808;9.476;2022-10-19T06:47:35;12.10;99.90
20045;DHT22;10183;47.808;9.476;2022-10-19T06:50:03;12.10;99.90
20045;DHT22;10183;47.808;9.476;2022-10-19T06:52:29;12.20;99.90
20045;DHT22;10183;47.808;9.476;2022-10-19T06:54:55;12.20;99.90
20045;DHT22;10183;47.808;9.476;2022-10-19T06:57:22;12.30;99.90
20045;DHT22;10183;47.808;9.476;2022-10-19T06:59:48;12.40;99.90
20045;DHT22;10183;47.808;9.476;2022-10-19T07:02:15;12.30;99.90
20045;DHT22;10183;47.808;9.476;2022-10-19T07:04:41;12.40;99.90
20045;DHT22;10183;47.808;9.476;2022-10-19T07:07:07;12.50;99.90
20045;DHT22;10183;47.808;9.476;2022-10-19T07:09:34;12.50;99.90
20045;DHT22;10183;47.808;9.476;2022-10-19T07:12:00;12.60;99.90
20045;DHT22;10183;47.808;9.476;2022-10-19T07:14:26;12.60;99.90
20045;DHT22;10183;47.808;9.476;2022-10-19T07:16:54;12.70;99.90
20045;DHT22;10183;47.808;9.476;2022-10-19T07:19:21;12.70;99.90
20045;DHT22;10183;47.808;9.476;2022-10-19T07:21:51;12.80;99.90
20045;DHT22;10183;47.808;9.476;2022-10-19T07:24:18;12.80;99.90
20045;DHT22;10183;47.808;9.476;2022-10-19T07:26:44;12.90;99.90
20045;DHT22;10183;47.808;9.476;2022-10-19T07:29:10;12.90;99.90
20045;DHT22;10183;47.808;9.476;2022-10-19T07:31:36;12.90;99.90
20045;DHT22;10183;47.808;9.476;2022-10-19T07:34:04;13.00;99.90
20045;DHT22;10183;47.808;9.476;2022-10-19T07:36:31;13.10;99.90
20045;DHT22;10183;47.808;9.476;2022-10-19T07:39:00;13.00;99.90
20045;DHT22;10183;47.808;9.476;2022-10-19T07:41:26;13.10;99.90
20045;DHT22;10183;47.808;9.476;2022-10-19T07:43:53;13.20;99.90
20045;DHT22;10183;47.808;9.476;2022-10-19T07:46:22;13.20;99.90
20045;DHT22;10183;47.808;9.476;2022-10-19T07:48:49;13.30;99.90
20045;DHT22;10183;47.808;9.476;2022-10-19T07:51:16;13.40;99.90
20045;DHT22;10183;47.808;9.476;2022-10-19T07:53:43;13.40;99.90
20045;DHT22;10183;47.808;9.476;2022-10-19T07:56:11;13.40;99.90
20045;DHT22;10183;47.808;9.476;2022-10-19T07:58:38;13.50;99.90
20045;DHT22;10183;47.808;9.476;2022-10-19T08:01:11;13.50;99.90
20045;DHT22;10183;47.808;9.476;2022-10-19T08:03:38;13.50;99.90
20045;DHT22;10183;47.808;9.476;2022-10-19T08:06:09;13.60;99.90
20045;DHT22;10183;47.808;9.476;2022-10-19T08:08:38;13.60;99.90
20045;DHT22;10183;47.808;9.476;2022-10-19T08:11:17;13.70;99.90
20045;DHT22;10183;47.808;9.476;2022-10-19T08:13:43;13.70;99.90
20045;DHT22;10183;47.808;9.476;2022-10-19T08:16:26;13.70;99.90
20045;DHT22;10183;47.808;9.476;2022-10-19T08:18:56;13.80;99.90
20045;DHT22;10183;47.808;9.476;2022-10-19T08:21:22;13.80;99.90
20045;DHT22;10183;47.808;9.476;2022-10-19T08:23:48;13.90;99.90
20045;DHT22;10183;47.808;9.476;2022-10-19T08:26:15;13.90;99.90
20045;DHT22;10183;47.808;9.476;2022-10-19T08:28:41;13.90;99.90
20045;DHT22;10183;47.808;9.476;2022-10-19T08:31:19;13.90;99.90
20045;DHT22;10183;47.808;9.476;2022-10-19T08:33:48;14.00;99.90
20045;DHT22;10183;47.808;9.476;2022-10-19T08:36:15;14.10;99.90
20045;DHT22;10183;47.808;9.476;2022-10-19T08:38:41;14.10;99.90
20045;DHT22;10183;47.808;9.476;2022-10-19T08:46:36;14.30;99.90
20045;DHT22;10183;47.808;9.476;2022-10-19T08:49:08;14.30;99.90
20045;DHT22;10183;47.808;9.476;2022-10-19T08:51:39;14.30;99.90
20045;DHT22;10183;47.808;9.476;2022-10-19T08:54:08;14.40;99.90
20045;DHT22;10183;47.808;9.476;2022-10-19T08:56:47;14.40;99.90
20045;DHT22;10183;47.808;9.476;2022-10-19T08:59:32;14.50;99.90
20045;DHT22;10183;47.808;9.476;2022-10-19T09:02:21;14.50;99.90
20045;DHT22;10183;47.808;9.476;2022-10-19T09:05:03;14.60;99.90
20045;DHT22;10183;47.808;9.476;2022-10-19T09:07:39;14.60;99.90
20045;DHT22;10183;47.808;9.476;2022-10-19T09:12:58;14.40;99.90
20045;DHT22;10183;47.808;9.476;2022-10-19T09:15:40;14.50;99.90
20045;DHT22;10183;47.808;9.476;2022-10-19T09:18:24;14.40;99.90
20045;DHT22;10183;47.808;9.476;2022-10-19T09:21:12;14.30;99.90
20045;DHT22;10183;47.808;9.476;2022-10-19T09:26:27;14.60;99.90
20045;DHT22;10183;47.808;9.476;2022-10-19T09:29:05;14.60;99.90
20045;DHT22;10183;47.808;9.476;2022-10-19T09:31:35;14.60;99.90
20045;DHT22;10183;47.808;9.476;2022-10-19T09:34:06;14.60;99.90
20045;DHT22;10183;47.808;9.476;2022-10-19T09:36:40;14.70;99.90
20045;DHT22;10183;47.808;9.476;2022-10-19T09:39:11;14.80;99.90
20045;DHT22;10183;47.808;9.476;2022-10-19T09:41:46;14.90;99.90
20045;DHT22;10183;47.808;9.476;2022-10-19T09:44:15;15.10;99.90
20045;DHT22;10183;47.808;9.476;2022-10-19T09:46:46;15.10;99.90
20045;DHT22;10183;47.808;9.476;2022-10-19T09:49:18;15.10;99.90
20045;DHT22;10183;47.808;9.476;2022-10-19T09:51:51;15.20;99.90
20045;DHT22;10183;47.808;9.476;2022-10-19T09:54:37;15.50;99.90
20045;DHT22;10183;47.808;9.476;2022-10-19T09:57:04;15.70;99.90
20045;DHT22;10183;47.808;9.476;2022-10-19T09:59:35;15.70;99.90
20045;DHT22;10183;47.808;9.476;2022-10-19T10:02:19;15.70;99.90
20045;DHT22;10183;47.808;9.476;2022-10-19T10:05:06;15.60;99.90
20045;DHT22;10183;47.808;9.476;2022-10-19T10:07:37;15.50;99.90
20045;DHT22;10183;47.808;9.476;2022-10-19T10:10:14;15.40;99.90
20045;DHT22;10183;47.808;9.476;2022-10-19T10:12:43;15.20;99.90
20045;DHT22;10183;47.808;9.476;2022-10-19T10:15:17;15.10;99.90
20045;DHT22;10183;47.808;9.476;2022-10-19T10:17:46;15.10;99.90
20045;DHT22;10183;47.808;9.476;2022-10-19T10:20:41;15.10;99.90
20045;DHT22;10183;47.808;9.476;2022-10-19T10:23:23;15.10;99.90
20045;DHT22;10183;47.808;9.476;2022-10-19T10:25:54;15.20;99.90
20045;DHT22;10183;47.808;9.476;2022-10-19T10:28:24;15.30;99.90
20045;DHT22;10183;47.808;9.476;2022-10-19T10:31:01;15.40;99.90
20045;DHT22;10183;47.808;9.476;2022-10-19T10:33:30;15.50;99.90
20045;DHT22;10183;47.808;9.476;2022-10-19T10:36:06;15.60;99.90
20045;DHT22;10183;47.808;9.476;2022-10-19T10:38:38;15.70;99.90
20045;DHT22;10183;47.808;9.476;2022-10-19T10:41:20;15.70;99.90
20045;DHT22;10183;47.808;9.476;2022-10-19T10:46:42;15.70;99.90
20045;DHT22;10183;47.808;9.476;2022-10-19T10:49:07;15.70;99.90
20045;DHT22;10183;47.808;9.476;2022-10-19T10:51:48;15.70;99.90
20045;DHT22;10183;47.808;9.476;2022-10-19T10:54:25;15.70;99.90
20045;DHT22;10183;47.808;9.476;2022-10-19T11:05:24;16.00;99.90
20045;DHT22;10183;47.808;9.476;2022-10-19T11:11:00;16.10;99.90
20045;DHT22;10183;47.808;9.476;2022-10-19T11:13:55;16.40;99.90
20045;DHT22;10183;47.808;9.476;2022-10-19T11:16:43;16.40;99.90
20045;DHT22;10183;47.808;9.476;2022-10-19T11:19:16;16.60;99.90
20045;DHT22;10183;47.808;9.476;2022-10-19T11:27:30;17.00;99.90
20045;DHT22;10183;47.808;9.476;2022-10-19T11:35:18;17.40;99.90
20045;DHT22;10183;47.808;9.476;2022-10-19T11:38:12;17.40;99.90
20045;DHT22;10183;47.808;9.476;2022-10-19T11:40:57;17.60;99.90
20045;DHT22;10183;47.808;9.476;2022-10-19T11:46:53;17.90;99.90
20045;DHT22;10183;47.808;9.476;2022-10-19T11:52:27;18.80;99.90
20045;DHT22;10183;47.808;9.476;2022-10-19T12:00:11;19.70;99.90
20045;DHT22;10183;47.808;9.476;2022-10-19T12:08:19;19.10;99.90
20045;DHT22;10183;47.808;9.476;2022-10-19T12:10:58;19.90;99.90
20045;DHT22;10183;47.808;9.476;2022-10-19T12:13:46;20.40;99.90
20045;DHT22;10183;47.808;9.476;2022-10-19T12:16:19;20.80;99.90
20045;DHT22;10183;47.808;9.476;2022-10-19T12:18:52;22.20;99.90
20045;DHT22;10183;47.808;9.476;2022-10-19T12:21:29;23.20;99.90
20045;DHT22;10183;47.808;9.476;2022-10-19T12:24:01;25.50;99.90
20045;DHT22;10183;47.808;9.476;2022-10-19T12:26:33;26.70;99.90
20045;DHT22;10183;47.808;9.476;2022-10-19T12:29:05;27.30;99.90
20045;DHT22;10183;47.808;9.476;2022-10-19T12:31:35;27.40;99.90
20045;DHT22;10183;47.808;9.476;2022-10-19T12:34:04;27.90;99.90
20045;DHT22;10183;47.808;9.476;2022-10-19T12:37:07;27.80;99.90
20045;DHT22;10183;47.808;9.476;2022-10-19T12:42:26;28.20;99.90
20045;DHT22;10183;47.808;9.476;2022-10-19T12:45:08;28.90;99.90
20045;DHT22;10183;47.808;9.476;2022-10-19T12:47:38;29.20;99.90
20045;DHT22;10183;47.808;9.476;2022-10-19T12:50:05;29.60;99.90
20045;DHT22;10183;47.808;9.476;2022-10-19T12:52:46;29.80;99.90
20045;DHT22;10183;47.808;9.476;2022-10-19T12:55:30;29.00;99.90
20045;DHT22;10183;47.808;9.476;2022-10-19T12:58:05;27.40;99.90
20045;DHT22;10183;47.808;9.476;2022-10-19T13:00:56;26.80;99.90
20045;DHT22;10183;47.808;9.476;2022-10-19T13:03:30;27.40;99.90
20045;DHT22;10183;47.808;9.476;2022-10-19T13:06:01;26.80;99.90
20045;DHT22;10183;47.808;9.476;2022-10-19T13:08:30;26.20;99.90
20045;DHT22;10183;47.808;9.476;2022-10-19T13:11:09;26.10;99.90
20045;DHT22;10183;47.808;9.476;2022-10-19T13:14:04;26.30;99.90
20045;DHT22;10183;47.808;9.476;2022-10-19T13:16:38;26.20;99.90
20045;DHT22;10183;47.808;9.476;2022-10-19T13:24:25;27.00;99.90
20045;DHT22;10183;47.808;9.476;2022-10-19T13:32:38;28.00;99.90
20045;DHT22;10183;47.808;9.476;2022-10-19T13:43:26;29.50;95.40
20045;DHT22;10183;47.808;9.476;2022-10-19T13:48:34;28.90;99.20
20045;DHT22;10183;47.808;9.476;2022-10-19T14:07:04;25.90;99.90
20045;DHT22;10183;47.808;9.476;2022-10-19T14:09:51;25.30;99.90
20045;DHT22;10183;47.808;9.476;2022-10-19T14:14:49;26.70;99.90
20045;DHT22;10183;47.808;9.476;2022-10-19T14:17:21;27.00;99.90
20045;DHT22;10183;47.808;9.476;2022-10-19T14:19:52;26.90;99.90
20045;DHT22;10183;47.808;9.476;2022-10-19T14:22:31;27.80;99.90
20045;DHT22;10183;47.808;9.476;2022-10-19T14:27:29;27.90;99.90
20045;DHT22;10183;47.808;9.476;2022-10-19T14:29:56;26.50;99.90
20045;DHT22;10183;47.808;9.476;2022-10-19T14:32:26;25.70;99.90
20045;DHT22;10183;47.808;9.476;2022-10-19T14:34:56;25.20;99.90
20045;DHT22;10183;47.808;9.476;2022-10-19T14:37:25;25.00;99.90
20045;DHT22;10183;47.808;9.476;2022-10-19T14:42:36;24.80;99.90
20045;DHT22;10183;47.808;9.476;2022-10-19T14:45:05;24.10;99.90
20045;DHT22;10183;47.808;9.476;2022-10-19T14:47:35;23.20;99.90
20045;DHT22;10183;47.808;9.476;2022-10-19T14:50:02;22.70;99.90
20045;DHT22;10183;47.808;9.476;2022-10-19T14:52:33;22.10;99.90
20045;DHT22;10183;47.808;9.476;2022-10-19T14:55:07;21.40;99.90
20045;DHT22;10183;47.808;9.476;2022-10-19T14:57:36;20.80;99.90
20045;DHT22;10183;47.808;9.476;2022-10-19T15:00:06;20.60;99.90
20045;DHT22;10183;47.808;9.476;2022-10-19T15:02:39;20.80;99.90
20045;DHT22;10183;47.808;9.476;2022-10-19T15:05:21;20.60;99.90
20045;DHT22;10183;47.808;9.476;2022-10-19T15:07:48;20.40;99.90
20045;DHT22;10183;47.808;9.476;2022-10-19T15:10:27;20.50;99.90
20045;DHT22;10183;47.808;9.476;2022-10-19T15:13:03;20.10;99.90
20045;DHT22;10183;47.808;9.476;2022-10-19T15:15:32;19.80;99.90
20045;DHT22;10183;47.808;9.476;2022-10-19T15:20:31;18.80;99.90
20045;DHT22;10183;47.808;9.476;2022-10-19T15:23:24;18.60;99.90
20045;DHT22;10183;47.808;9.476;2022-10-19T15:25:58;18.40;99.90
20045;DHT22;10183;47.808;9.476;2022-10-19T15:31:19;18.10;99.90
20045;DHT22;10183;47.808;9.476;2022-10-19T15:33:51;18.00;99.90
20045;DHT22;10183;47.808;9.476;2022-10-19T15:36:19;18.00;99.90
20045;DHT22;10183;47.808;9.476;2022-10-19T15:39:02;18.30;99.90
20045;DHT22;10183;47.808;9.476;2022-10-19T15:41:32;18.60;99.90
20045;DHT22;10183;47.808;9.476;2022-10-19T15:44:00;18.70;99.90
20045;DHT22;10183;47.808;9.476;2022-10-19T15:46:33;18.40;99.90
20045;DHT22;10183;47.808;9.476;2022-10-19T15:51:43;17.80;99.90
20045;DHT22;10183;47.808;9.476;2022-10-19T15:54:11;17.60;99.90
20045;DHT22;10183;47.808;9.476;2022-10-19T15:56:41;17.40;99.90
20045;DHT22;10183;47.808;9.476;2022-10-19T15:59:19;17.20;99.90
20045;DHT22;10183;47.808;9.476;2022-10-19T16:01:46;17.00;99.90
20045;DHT22;10183;47.808;9.476;2022-10-19T16:04:13;16.70;99.90
20045;DHT22;10183;47.808;9.476;2022-10-19T16:06:42;16.40;99.90
20045;DHT22;10183;47.808;9.476;2022-10-19T16:09:27;16.10;99.90
20045;DHT22;10183;47.808;9.476;2022-10-19T16:11:53;15.80;99.90
20045;DHT22;10183;47.808;9.476;2022-10-19T16:14:23;15.70;99.90
20045;DHT22;10183;47.808;9.476;2022-10-19T16:16:51;15.50;99.90
20045;DHT22;10183;47.808;9.476;2022-10-19T16:19:17;15.30;99.90
20045;DHT22;10183;47.808;9.476;2022-10-19T16:21:43;15.20;99.90
20045;DHT22;10183;47.808;9.476;2022-10-19T16:24:09;15.00;99.90
20045;DHT22;10183;47.808;9.476;2022-10-19T16:26:36;14.90;99.90
20045;DHT22;10183;47.808;9.476;2022-10-19T16:29:02;14.80;99.90
20045;DHT22;10183;47.808;9.476;2022-10-19T16:31:29;14.60;99.90
20045;DHT22;10183;47.808;9.476;2022-10-19T16:33:56;14.40;99.90
20045;DHT22;10183;47.808;9.476;2022-10-19T16:36:22;14.30;99.90
20045;DHT22;10183;47.808;9.476;2022-10-19T16:38:48;14.20;99.90
20045;DHT22;10183;47.808;9.476;2022-10-19T16:41:15;14.10;99.90
20045;DHT22;10183;47.808;9.476;2022-10-19T16:43:42;14.10;99.90
20045;DHT22;10183;47.808;9.476;2022-10-19T16:46:08;14.00;99.90
20045;DHT22;10183;47.808;9.476;2022-10-19T16:48:34;13.90;99.90
20045;DHT22;10183;47.808;9.476;2022-10-19T16:53:35;13.80;99.90
20045;DHT22;10183;47.808;9.476;2022-10-19T16:56:07;13.80;99.90
20045;DHT22;10183;47.808;9.476;2022-10-19T16:58:34;13.70;99.90
20045;DHT22;10183;47.808;9.476;2022-10-19T17:01:09;13.60;99.90
20045;DHT22;10183;47.808;9.476;2022-10-19T17:03:36;13.60;99.90
20045;DHT22;10183;47.808;9.476;2022-10-19T17:06:06;13.60;99.90
20045;DHT22;10183;47.808;9.476;2022-10-19T17:08:34;13.60;99.90
20045;DHT22;10183;47.808;9.476;2022-10-19T17:11:25;13.60;99.90
20045;DHT22;10183;47.808;9.476;2022-10-19T17:13:54;13.60;99.90
20045;DHT22;10183;47.808;9.476;2022-10-19T17:16:21;13.60;99.90
20045;DHT22;10183;47.808;9.476;2022-10-19T17:18:48;13.60;99.90
20045;DHT22;10183;47.808;9.476;2022-10-19T17:21:17;13.70;99.90
20045;DHT22;10183;47.808;9.476;2022-10-19T17:23:44;13.70;99.90
20045;DHT22;10183;47.808;9.476;2022-10-19T17:26:11;13.70;99.90
20045;DHT22;10183;47.808;9.476;2022-10-19T17:28:38;13.80;99.90
20045;DHT22;10183;47.808;9.476;2022-10-19T17:31:11;13.80;99.90
20045;DHT22;10183;47.808;9.476;2022-10-19T17:33:38;13.80;99.90
20045;DHT22;10183;47.808;9.476;2022-10-19T17:36:14;13.90;99.90
20045;DHT22;10183;47.808;9.476;2022-10-19T17:38:40;13.90;99.90
20045;DHT22;10183;47.808;9.476;2022-10-19T17:41:09;13.90;99.90
20045;DHT22;10183;47.808;9.476;2022-10-19T17:43:38;13.90;99.90
20045;DHT22;10183;47.808;9.476;2022-10-19T17:46:06;13.80;99.90
20045;DHT22;10183;47.808;9.476;2022-10-19T17:48:34;13.80;99.90
20045;DHT22;10183;47.808;9.476;2022-10-19T17:51:13;13.80;99.90
20045;DHT22;10183;47.808;9.476;2022-10-19T17:53:42;13.70;99.90
20045;DHT22;10183;47.808;9.476;2022-10-19T17:56:09;13.80;99.90
20045;DHT22;10183;47.808;9.476;2022-10-19T17:58:36;13.80;99.90
20045;DHT22;10183;47.808;9.476;2022-10-19T18:01:04;13.70;99.90
20045;DHT22;10183;47.808;9.476;2022-10-19T18:03:32;13.80;99.90
20045;DHT22;10183;47.808;9.476;2022-10-19T18:06:11;13.80;99.90
20045;DHT22;10183;47.808;9.476;2022-10-19T18:08:40;13.70;99.90
20045;DHT22;10183;47.808;9.476;2022-10-19T18:11:12;13.70;99.90